createdAt,value
2023-02-11T00:01:32.215Z,101181.12
2023-02-11T00:04:34.518Z,101186.63
2023-02-11T00:07:37.164Z,101179.13
2023-02-11T00:10:39.314Z,101178.97
2023-02-11T00:13:42.567Z,101176.66
2023-02-11T00:16:44.880Z,101174.00
2023-02-11T00:19:51.215Z,101170.72
2023-02-11T00:22:53.377Z,101167.97
2023-02-11T00:25:55.596Z,101162.37
2023-02-11T00:28:58.141Z,101167.28
2023-02-11T00:32:05.204Z,101163.50
2023-02-11T00:35:07.782Z,101165.28
2023-02-11T00:38:10.067Z,101166.00
2023-02-11T00:41:13.462Z,101176.22
2023-02-11T00:44:15.630Z,101157.22
2023-02-11T00:47:17.859Z,101162.16
2023-02-11T00:50:20.060Z,101160.59
2023-02-11T00:53:22.252Z,101165.81
2023-02-11T00:56:24.524Z,101159.44
2023-02-11T00:59:27.100Z,101159.03
2023-02-11T01:02:29.317Z,101143.50
2023-02-11T01:05:31.631Z,101137.47
2023-02-11T01:08:34.035Z,101136.75
2023-02-11T01:11:36.236Z,101132.16
2023-02-11T01:14:38.432Z,101124.28
2023-02-11T01:17:40.701Z,101120.28
2023-02-11T01:20:42.981Z,101121.37
2023-02-11T01:23:45.379Z,101120.47
2023-02-11T01:26:47.565Z,101115.66
2023-02-11T01:29:49.707Z,101102.56
2023-02-11T01:32:51.929Z,101110.34
2023-02-11T01:35:54.082Z,101108.91
2023-02-11T01:38:56.249Z,101109.09
2023-02-11T01:41:58.455Z,101107.44
2023-02-11T01:45:01.758Z,101107.38
2023-02-11T01:48:04.173Z,101110.41
2023-02-11T01:51:10.562Z,101115.06
2023-02-11T01:54:34.757Z,101110.06
2023-02-11T01:57:38.833Z,101104.16
2023-02-11T02:00:42.611Z,101096.31
2023-02-11T02:03:45.943Z,101094.34
2023-02-11T02:06:56.367Z,101095.88
2023-02-11T02:10:03.858Z,101095.78
2023-02-11T02:13:06.428Z,101096.03
2023-02-11T02:16:13.049Z,101101.84
2023-02-11T02:19:53.847Z,101100.53
2023-02-11T02:23:05.130Z,101105.13
2023-02-11T02:26:13.126Z,101099.16
2023-02-11T02:29:51.267Z,101089.91
2023-02-11T02:33:38.203Z,101093.91
2023-02-11T02:37:10.749Z,101094.41
2023-02-11T02:40:18.580Z,101085.00
2023-02-11T02:43:21.807Z,101087.56
2023-02-11T02:46:30.151Z,101082.81
2023-02-11T02:49:32.386Z,101085.75
2023-02-11T02:52:35.920Z,101082.81
2023-02-11T02:56:10.506Z,101082.88
2023-02-11T02:59:37.720Z,101083.25
2023-02-11T03:03:08.924Z,101078.34
2023-02-11T03:06:38.876Z,101072.00
2023-02-11T03:09:47.103Z,101074.44
2023-02-11T03:12:49.792Z,101072.62
2023-02-11T03:15:54.103Z,101066.84
2023-02-11T03:19:00.435Z,101062.56
2023-02-11T03:22:03.570Z,101059.97
2023-02-11T03:25:06.202Z,101050.56
2023-02-11T03:28:12.427Z,101047.94
2023-02-11T03:31:22.330Z,101055.13
2023-02-11T03:34:42.797Z,101044.34
2023-02-11T03:38:21.069Z,101037.13
2023-02-11T03:41:24.516Z,101035.53
2023-02-11T03:44:30.846Z,101032.16
2023-02-11T03:47:36.164Z,101031.22
2023-02-11T03:50:39.407Z,101024.13
2023-02-11T03:53:43.551Z,101019.97
2023-02-11T03:56:54.633Z,101007.91
2023-02-11T03:59:59.025Z,100998.78
2023-02-11T04:03:01.277Z,101002.03
2023-02-11T04:06:03.691Z,100997.06
2023-02-11T04:09:05.866Z,100986.69
2023-02-11T04:12:08.128Z,100976.81
2023-02-11T04:15:10.464Z,100982.87
2023-02-11T04:18:12.628Z,100977.91
2023-02-11T04:21:14.861Z,100976.16
2023-02-11T04:24:17.048Z,100964.12
2023-02-11T04:27:19.276Z,100971.88
2023-02-11T04:30:21.553Z,100974.22
2023-02-11T04:33:23.817Z,100966.13
2023-02-11T04:36:25.995Z,100973.16
2023-02-11T04:39:28.226Z,100979.53
2023-02-11T04:42:30.595Z,100976.22
2023-02-11T04:45:33.513Z,100973.97
2023-02-11T04:48:35.855Z,100971.16
2023-02-11T04:51:38.034Z,100975.47
2023-02-11T04:54:40.596Z,100969.06
2023-02-11T04:57:42.988Z,100975.44
2023-02-11T05:00:45.508Z,100970.13
2023-02-11T05:03:47.713Z,100976.22
2023-02-11T05:06:49.945Z,100981.28
2023-02-11T05:09:52.142Z,100981.19
2023-02-11T05:12:55.987Z,100980.59
2023-02-11T05:15:58.442Z,100986.37
2023-02-11T05:19:00.926Z,100982.53
2023-02-11T05:22:03.818Z,100984.09
2023-02-11T05:25:06.461Z,100988.78
2023-02-11T05:28:08.764Z,100977.13
2023-02-11T05:31:14.509Z,100976.47
2023-02-11T05:34:16.814Z,100981.75
2023-02-11T05:37:19.043Z,100969.50
2023-02-11T05:40:21.382Z,100969.53
2023-02-11T05:43:23.643Z,100971.16
2023-02-11T05:46:25.880Z,100956.50
2023-02-11T05:49:28.076Z,100958.09
2023-02-11T05:52:30.273Z,100961.53
2023-02-11T05:55:32.896Z,100961.53
2023-02-11T05:58:35.093Z,100966.34
2023-02-11T06:01:37.312Z,100961.59
2023-02-11T06:04:39.569Z,100965.87
2023-02-11T06:07:41.818Z,100969.81
2023-02-11T06:10:47.117Z,100965.09
2023-02-11T06:13:49.323Z,100967.56
2023-02-11T06:16:51.551Z,100966.44
2023-02-11T06:19:53.754Z,100951.84
2023-02-11T06:22:56.001Z,100952.34
2023-02-11T06:26:02.788Z,100941.31
2023-02-11T06:29:04.976Z,100944.63
2023-02-11T06:32:10.082Z,100940.56
2023-02-11T06:35:18.322Z,100930.72
2023-02-11T06:38:20.583Z,100945.59
2023-02-11T06:41:22.953Z,100951.75
2023-02-11T06:44:25.174Z,100939.81
2023-02-11T06:47:27.408Z,100943.91
2023-02-11T06:50:29.653Z,100946.00
2023-02-11T06:53:34.685Z,100943.66
2023-02-11T06:56:39.986Z,100935.00
2023-02-11T06:59:42.172Z,100942.56
2023-02-11T07:02:44.425Z,100936.25
2023-02-11T07:05:46.701Z,100934.44
2023-02-11T07:08:49.398Z,100923.03
2023-02-11T07:11:51.609Z,100926.72
2023-02-11T07:14:53.790Z,100925.75
2023-02-11T07:17:55.956Z,100935.69
2023-02-11T07:20:58.128Z,100931.34
2023-02-11T07:24:00.313Z,100930.56
2023-02-11T07:27:02.457Z,100928.94
2023-02-11T07:30:07.307Z,100930.03
2023-02-11T07:33:09.647Z,100930.09
2023-02-11T07:36:13.316Z,100928.75
2023-02-11T07:39:15.834Z,100925.84
2023-02-11T07:42:18.082Z,100912.34
2023-02-11T07:45:20.291Z,100916.22
2023-02-11T07:48:22.512Z,100911.78
2023-02-11T07:51:29.764Z,100904.13
2023-02-11T07:54:31.968Z,100906.38
2023-02-11T07:57:34.142Z,100905.34
2023-02-11T08:00:36.417Z,100912.09
2023-02-11T08:03:39.819Z,100895.88
2023-02-11T08:06:43.305Z,100901.59
2023-02-11T08:09:45.778Z,100908.19
2023-02-11T08:12:48.311Z,100901.19
2023-02-11T08:15:50.732Z,100896.47
2023-02-11T08:18:53.920Z,100902.03
2023-02-11T08:21:57.125Z,100902.44
2023-02-11T08:24:59.343Z,100903.81
2023-02-11T08:28:01.539Z,100898.31
2023-02-11T08:31:11.943Z,100910.12
2023-02-11T08:34:18.294Z,100909.94
2023-02-11T08:37:20.590Z,100907.50
2023-02-11T08:40:22.838Z,100903.22
2023-02-11T08:43:25.057Z,100911.34
2023-02-11T08:46:27.500Z,100897.75
2023-02-11T08:49:30.808Z,100910.75
2023-02-11T08:52:33.229Z,100903.44
2023-02-11T08:55:35.484Z,100897.00
2023-02-11T08:58:37.748Z,100904.50
2023-02-11T09:01:39.955Z,100899.97
2023-02-11T09:04:42.225Z,100893.06
2023-02-11T09:07:44.470Z,100892.34
2023-02-11T09:10:47.089Z,100893.09
2023-02-11T09:13:49.294Z,100885.34
2023-02-11T09:16:52.083Z,100882.94
2023-02-11T09:19:54.383Z,100883.38
2023-02-11T09:22:58.042Z,100873.09
2023-02-11T09:26:11.070Z,100871.34
2023-02-11T09:29:13.344Z,100873.06
2023-02-11T09:32:15.733Z,100874.16
2023-02-11T09:35:18.045Z,100863.44
2023-02-11T09:38:20.189Z,100866.84
2023-02-11T09:41:25.286Z,100860.06
2023-02-11T09:44:29.190Z,100864.00
2023-02-11T09:47:33.471Z,100858.53
2023-02-11T09:50:40.262Z,100869.00
2023-02-11T09:53:43.480Z,100862.56
2023-02-11T09:56:45.792Z,100866.59
2023-02-11T09:59:49.342Z,100862.31
2023-02-11T10:03:29.868Z,100862.16
2023-02-11T10:06:34.582Z,100850.87
2023-02-11T10:09:54.952Z,100841.81
2023-02-11T10:13:34.605Z,100850.47
2023-02-11T10:17:05.377Z,100841.34
2023-02-11T10:20:26.710Z,100840.97
2023-02-11T10:23:35.519Z,100852.06
2023-02-11T10:26:39.831Z,100842.06
2023-02-11T10:29:48.047Z,100827.56
2023-02-11T10:32:59.841Z,100830.56
2023-02-11T10:36:02.218Z,100808.81
2023-02-11T10:39:20.684Z,100809.13
2023-02-11T10:42:22.884Z,100801.72
2023-02-11T10:45:42.131Z,100793.09
2023-02-11T10:48:52.812Z,100793.03
2023-02-11T10:52:22.350Z,100775.97
2023-02-11T10:55:27.849Z,100787.88
2023-02-11T10:59:05.630Z,100784.25
2023-02-11T11:02:24.741Z,100779.44
2023-02-11T11:05:32.509Z,100772.81
2023-02-11T11:08:44.191Z,100768.22
2023-02-11T11:11:52.675Z,100759.37
2023-02-11T11:14:57.796Z,100756.53
2023-02-11T11:18:22.360Z,100750.66
2023-02-11T11:21:46.199Z,100753.09
2023-02-11T11:24:54.233Z,100738.13
2023-02-11T11:27:59.161Z,100729.91
2023-02-11T11:31:01.824Z,100723.22
2023-02-11T11:34:23.166Z,100719.66
2023-02-11T11:37:25.378Z,100714.06
2023-02-11T11:40:29.984Z,100711.37
2023-02-11T11:43:32.340Z,100708.75
2023-02-11T11:46:42.627Z,100716.13
2023-02-11T11:49:52.009Z,100707.87
2023-02-11T11:53:09.772Z,100707.66
2023-02-11T11:56:13.231Z,100704.53
2023-02-11T11:59:17.097Z,100698.59
2023-02-11T12:02:56.300Z,100694.28
2023-02-11T12:06:17.738Z,100694.84
2023-02-11T12:09:45.183Z,100696.47
2023-02-11T12:12:47.294Z,100684.03
2023-02-11T12:15:58.548Z,100674.28
2023-02-11T12:19:28.645Z,100664.47
2023-02-11T12:22:35.832Z,100654.31
2023-02-11T12:25:55.318Z,100635.06
2023-02-11T12:29:00.725Z,100626.63
2023-02-11T12:32:02.896Z,100625.97
2023-02-11T12:35:13.956Z,100626.81
2023-02-11T12:38:39.561Z,100627.22
2023-02-11T12:42:09.379Z,100623.19
2023-02-11T12:45:11.517Z,100638.72
2023-02-11T12:48:29.004Z,100634.72
2023-02-11T12:52:00.572Z,100627.37
2023-02-11T12:55:09.819Z,100627.41
2023-02-11T12:58:17.087Z,100614.34
2023-02-11T13:01:24.049Z,100622.47
2023-02-11T13:04:30.748Z,100606.84
2023-02-11T13:07:40.266Z,100609.56
2023-02-11T13:10:47.468Z,100606.53
2023-02-11T13:14:12.409Z,100592.84
2023-02-11T13:17:20.947Z,100597.53
2023-02-11T13:20:29.140Z,100589.94
2023-02-11T13:23:34.827Z,100577.69
2023-02-11T13:26:46.517Z,100570.62
2023-02-11T13:30:22.249Z,100567.41
2023-02-11T13:33:35.386Z,100556.03
2023-02-11T13:36:37.593Z,100565.03
2023-02-11T13:39:40.079Z,100555.63
2023-02-11T13:42:53.883Z,100548.69
2023-02-11T13:46:22.885Z,100552.69
2023-02-11T13:49:49.769Z,100552.16
2023-02-11T13:53:03.067Z,100568.91
2023-02-11T13:56:08.324Z,100563.63
2023-02-11T13:59:26.645Z,100566.03
2023-02-11T14:02:51.420Z,100559.34
2023-02-11T14:07:05.436Z,100550.09
2023-02-11T14:10:43.118Z,100551.16
2023-02-11T14:13:48.037Z,100555.34
2023-02-11T14:17:16.066Z,100550.47
2023-02-11T14:20:39.791Z,100550.25
2023-02-11T14:23:42.184Z,100543.69
2023-02-11T14:27:00.546Z,100551.78
2023-02-11T14:30:21.872Z,100567.03
2023-02-11T14:34:02.069Z,100568.38
2023-02-11T14:37:13.013Z,100564.22
2023-02-11T14:40:27.553Z,100582.13
2023-02-11T14:43:46.935Z,100577.72
2023-02-11T14:46:52.498Z,100580.09
2023-02-11T14:49:55.024Z,100583.25
2023-02-11T14:52:59.219Z,100582.72
2023-02-11T14:56:01.435Z,100575.91
2023-02-11T14:59:03.883Z,100569.66
2023-02-11T15:02:23.423Z,100550.25
2023-02-11T15:05:29.028Z,100534.19
2023-02-11T15:08:31.872Z,100536.81
2023-02-11T15:11:35.377Z,100521.94
2023-02-11T15:14:40.452Z,100517.78
2023-02-11T15:17:43.997Z,100516.25
2023-02-11T15:20:47.314Z,100513.78
2023-02-11T15:23:56.918Z,100523.50
2023-02-11T15:27:18.631Z,100542.06
2023-02-11T15:30:22.215Z,100538.06
2023-02-11T15:33:25.504Z,100529.88
2023-02-11T15:36:28.845Z,100531.53
2023-02-11T15:39:35.608Z,100519.22
2023-02-11T15:42:52.406Z,100515.31
2023-02-11T15:46:00.680Z,100511.03
2023-02-11T15:49:03.279Z,100505.06
2023-02-11T15:52:08.297Z,100507.09
2023-02-11T15:55:14.344Z,100512.38
2023-02-11T15:58:16.500Z,100504.34
2023-02-11T16:01:18.844Z,100502.94
2023-02-11T16:04:24.522Z,100490.06
2023-02-11T16:07:59.914Z,100491.81
2023-02-11T16:11:08.923Z,100479.22
2023-02-11T16:14:39.431Z,100477.13
2023-02-11T16:17:44.152Z,100473.09
2023-02-11T16:20:48.104Z,100479.56
2023-02-11T16:23:53.680Z,100476.34
2023-02-11T16:26:58.785Z,100461.66
2023-02-11T16:30:01.392Z,100473.75
2023-02-11T16:33:05.490Z,100477.75
2023-02-11T16:36:15.287Z,100482.31
2023-02-11T16:39:19.952Z,100481.22
2023-02-11T16:42:23.355Z,100472.22
2023-02-11T16:45:26.807Z,100477.28
2023-02-11T16:48:29.104Z,100464.22
2023-02-11T16:51:31.538Z,100467.66
2023-02-11T16:54:34.058Z,100468.38
2023-02-11T16:57:36.603Z,100466.56
2023-02-11T17:00:39.113Z,100478.41
2023-02-11T17:03:41.431Z,100486.72
2023-02-11T17:06:43.889Z,100486.50
2023-02-11T17:09:46.311Z,100490.56
2023-02-11T17:12:49.529Z,100493.75
2023-02-11T17:15:52.192Z,100500.72
2023-02-11T17:18:55.056Z,100488.16
2023-02-11T17:21:57.588Z,100492.41
2023-02-11T17:25:00.078Z,100497.09
2023-02-11T17:28:03.083Z,100490.16
2023-02-11T17:31:09.508Z,100488.53
2023-02-11T17:34:11.897Z,100485.78
2023-02-11T17:37:14.101Z,100479.91
2023-02-11T17:40:16.880Z,100483.53
2023-02-11T17:43:19.068Z,100488.41
2023-02-11T17:46:21.545Z,100500.75
2023-02-11T17:49:24.343Z,100491.59
2023-02-11T17:52:28.231Z,100485.25
2023-02-11T17:55:33.968Z,100475.66
2023-02-11T17:58:36.408Z,100474.00
2023-02-11T18:01:40.547Z,100470.44
2023-02-11T18:04:42.813Z,100470.84
2023-02-11T18:07:45.366Z,100463.13
2023-02-11T18:10:47.929Z,100449.69
2023-02-11T18:13:54.358Z,100442.62
2023-02-11T18:16:56.997Z,100441.22
2023-02-11T18:19:59.486Z,100441.69
2023-02-11T18:23:02.641Z,100444.28
2023-02-11T18:26:07.671Z,100444.16
2023-02-11T18:29:10.151Z,100430.19
2023-02-11T18:32:13.373Z,100443.47
2023-02-11T18:35:16.365Z,100451.91
2023-02-11T18:38:19.076Z,100451.81
2023-02-11T18:41:21.593Z,100444.31
2023-02-11T18:44:24.777Z,100440.41
2023-02-11T18:47:27.033Z,100439.94
2023-02-11T18:50:29.472Z,100450.59
2023-02-11T18:53:31.928Z,100445.59
2023-02-11T18:56:34.518Z,100448.22
2023-02-11T18:59:36.946Z,100452.66
2023-02-11T19:02:39.416Z,100438.84
2023-02-11T19:05:43.425Z,100438.44
2023-02-11T19:08:46.398Z,100445.00
2023-02-11T19:11:54.010Z,100450.84
2023-02-11T19:14:59.105Z,100454.31
2023-02-11T19:18:01.914Z,100444.50
2023-02-11T19:21:09.403Z,100459.38
2023-02-11T19:24:13.304Z,100464.25
2023-02-11T19:27:15.793Z,100458.13
2023-02-11T19:30:18.814Z,100463.19
2023-02-11T19:33:21.287Z,100453.78
2023-02-11T19:36:23.855Z,100456.44
2023-02-11T19:39:27.023Z,100457.81
2023-02-11T19:42:29.547Z,100463.13
2023-02-11T19:45:32.800Z,100449.66
2023-02-11T19:48:35.925Z,100451.56
2023-02-11T19:51:39.387Z,100459.47
2023-02-11T19:54:41.972Z,100453.09
2023-02-11T19:57:44.209Z,100451.41
2023-02-11T20:00:46.707Z,100455.38
2023-02-11T20:03:50.598Z,100459.53
2023-02-11T20:06:53.051Z,100452.72
2023-02-11T20:09:55.483Z,100451.06
2023-02-11T20:12:58.036Z,100444.56
2023-02-11T20:16:12.475Z,100450.94
2023-02-11T20:19:19.807Z,100447.03
2023-02-11T20:22:22.319Z,100442.34
2023-02-11T20:25:24.677Z,100446.91
2023-02-11T20:28:26.936Z,100440.69
2023-02-11T20:31:33.058Z,100435.16
2023-02-11T20:34:36.505Z,100438.91
2023-02-11T20:37:38.900Z,100427.53
2023-02-11T20:40:41.292Z,100440.56
2023-02-11T20:43:46.673Z,100432.94
2023-02-11T20:46:50.192Z,100438.72
2023-02-11T20:49:54.868Z,100428.66
2023-02-11T20:52:57.326Z,100424.09
2023-02-11T20:56:02.533Z,100420.78
2023-02-11T20:59:05.850Z,100420.22
2023-02-11T21:02:10.315Z,100416.91
2023-02-11T21:05:12.888Z,100405.12
2023-02-11T21:08:15.086Z,100406.53
2023-02-11T21:11:17.713Z,100406.53
2023-02-11T21:14:22.285Z,100410.41
2023-02-11T21:17:26.559Z,100419.13
2023-02-11T21:20:28.963Z,100411.34
2023-02-11T21:23:31.781Z,100413.53
2023-02-11T21:26:35.466Z,100414.59
2023-02-11T21:29:52.640Z,100414.44
2023-02-11T21:32:58.307Z,100409.63
2023-02-11T21:36:02.869Z,100412.38
2023-02-11T21:39:06.013Z,100417.66
2023-02-11T21:42:08.359Z,100411.06
2023-02-11T21:45:10.775Z,100391.22
2023-02-11T21:48:14.224Z,100398.03
2023-02-11T21:51:18.898Z,100387.97
2023-02-11T21:54:21.270Z,100395.78
2023-02-11T21:57:24.133Z,100423.56
2023-02-11T22:00:26.406Z,100416.91
2023-02-11T22:03:28.689Z,100410.53
2023-02-11T22:06:33.957Z,100402.00
2023-02-11T22:09:39.039Z,100413.16
2023-02-11T22:12:41.275Z,100401.97
2023-02-11T22:15:43.731Z,100407.75
2023-02-11T22:18:46.550Z,100398.12
2023-02-11T22:21:48.765Z,100406.97
2023-02-11T22:24:50.993Z,100420.16
2023-02-11T22:27:53.175Z,100417.97
2023-02-11T22:30:56.540Z,100408.44
2023-02-11T22:33:59.305Z,100432.81
2023-02-11T22:37:02.422Z,100431.03
2023-02-11T22:40:04.993Z,100439.03
2023-02-11T22:43:07.190Z,100428.94
2023-02-11T22:46:12.134Z,100419.50
2023-02-11T22:49:15.787Z,100443.28
2023-02-11T22:52:18.013Z,100444.91
2023-02-11T22:55:20.164Z,100432.31
2023-02-11T22:58:22.336Z,100442.25
2023-02-11T23:01:24.742Z,100428.03
2023-02-11T23:04:26.947Z,100437.13
2023-02-11T23:07:29.309Z,100435.47
2023-02-11T23:10:31.508Z,100432.59
2023-02-11T23:13:35.625Z,100434.25
2023-02-11T23:16:37.983Z,100438.09
2023-02-11T23:19:40.256Z,100431.62
2023-02-11T23:22:42.462Z,100420.28
2023-02-11T23:25:44.873Z,100423.94
2023-02-11T23:28:47.644Z,100415.88
2023-02-11T23:31:50.069Z,100416.69
2023-02-11T23:34:52.803Z,100413.91
2023-02-11T23:37:54.949Z,100417.84
2023-02-11T23:40:57.126Z,100417.34
2023-02-11T23:43:59.367Z,100408.66
2023-02-11T23:47:01.521Z,100403.00
2023-02-11T23:50:04.061Z,100397.78
2023-02-11T23:53:06.250Z,100401.75
2023-02-11T23:56:10.442Z,100399.66
2023-02-11T23:59:12.857Z,100404.44
